windsock image

Welcome to Bigfield Strip.

anemometer image
     

 Help for dials.  
 
Local Met:

Wind:   
10 Min average:  
360 ° / 0.0 kts (0.0)
360° / 0.0

Temperature:  
5.2°C C
Dew Point:  
4.5°C C
QNH:  
Trend:  
1019.6 mb mb
+0.6mb/hr
BigField Strip. This image updates approximately every minute, it can have a two minute delay.  
 

Humidity:  
95 %
Sunrise:   07:36z
Sunset:   16:03z
Updated:  
  UTC
 
   More met info, trends, radar, history etc. available here   

LUTON Metar   EGGW 231850Z 32009KT 9999 FEW032 07/06 Q1018
 
  TAF   2014/11/23 18:15 TAF EGGW 231701Z 2318/2418 33006KT CAVOK TEMPO 2318/2320 7000 -RA BKN004 PROB30 2320/2406 5000 MIFG BR PROB30 2406/2410 3000 MIFG BR
 
BENSON Metar   EGUB 231850Z AUTO 29002KT 9000 // OVC160/// 06/06 Q1019
 
  TAF   2014/11/23 15:33 TAF TAF EGUB 231629Z 2315/2318 CNL
 
Big Field view 1 icon   Big Field view 2 icon   Big Field view 3 icon   Chart AL3a in PDF icon   Chart AL3a in Word icon

WARNING:
This information is provided by the Airstrip unofficial weather station, DO NOT depend on the data provided here for any purpose.
This page is updated for latest Metars & TAF's every 5 minutes. Refresh the browser to check for the lastest.
Page designed for a minimum browser size of 1024x768.
© Copyright 2014 BigField Strip. This page auto generated 19:26 UTC - 23/11/2014   Contact Us
Valid HTML 4.01 Transitional     Windows uptime: 6 Days 16 Hours 54 Minutes 27 Seconds    WD started: 02:37 17/11/14    Free memory: 1506MB     Valid CSS!